Time;durP1;ratioP1;P1;durP2;ratioP2;P2;SDS_P1;SDS_P2;PMS_P1;PMS_P2;Temp;Humidity;BMP_temperature;BMP_pressure;BME280_temperature;BME280_humidity;BME280_pressure;Samples;Min_cycle;Max_cycle;Signal;HPM_P1;HPM_P2
2023/10/20 00:01:45;;;;;;;1.90;1.73;;;;;;;18.90;67.91;94379.47;4889698;28;20353;-83
2023/10/20 00:04:10;;;;;;;1.67;1.55;;;;;;;18.94;67.81;94371.56;4909873;28;20224;-83
2023/10/20 00:06:38;;;;;;;1.88;1.52;;;;;;;19.01;67.22;94378.78;4909131;28;20280;-84
2023/10/20 00:09:06;;;;;;;1.80;1.70;;;;;;;19.06;67.43;94375.78;4926206;28;20596;-83
2023/10/20 00:11:32;;;;;;;1.75;1.65;;;;;;;19.15;66.84;94381.50;4894798;28;20165;-84
2023/10/20 00:13:57;;;;;;;4.18;2.67;;;;;;;19.04;67.32;94367.50;4909109;28;20187;-84
2023/10/20 00:16:26;;;;;;;1.85;1.42;;;;;;;19.07;67.33;94378.06;4909001;28;20207;-84
2023/10/20 00:18:52;;;;;;;1.60;1.50;;;;;;;19.08;67.30;94369.00;4920431;28;20645;-83
2023/10/20 00:21:18;;;;;;;1.58;1.48;;;;;;;19.15;67.06;94386.75;4923495;28;20235;-82
2023/10/20 00:23:43;;;;;;;1.77;1.67;;;;;;;19.08;66.89;94384.09;4901442;28;20200;-83
2023/10/20 00:26:09;;;;;;;2.00;1.80;;;;;;;19.14;66.70;94382.63;4893802;28;20174;-83
2023/10/20 00:28:34;;;;;;;1.75;1.60;;;;;;;19.12;66.82;94382.22;4885094;28;20662;-83
2023/10/20 00:31:00;;;;;;;2.53;1.95;;;;;;;19.13;66.73;94383.75;4891149;28;20618;-84
2023/10/20 00:33:25;;;;;;;3.25;1.80;;;;;;;19.20;66.59;94381.16;4925201;28;20429;-83
2023/10/20 00:35:50;;;;;;;2.45;1.95;;;;;;;19.05;66.62;94371.63;4896755;28;20208;-83
2023/10/20 00:38:15;;;;;;;2.13;1.92;;;;;;;19.07;66.70;94372.78;4907752;28;20221;-83
2023/10/20 00:40:48;;;;;;;2.10;1.90;;;;;;;19.15;66.94;94372.81;4921704;28;20237;-83
2023/10/20 00:43:13;;;;;;;2.28;1.77;;;;;;;19.15;67.03;94378.84;4906881;28;20146;-83
2023/10/20 00:45:43;;;;;;;2.00;1.80;;;;;;;19.01;67.22;94355.03;4909429;28;20472;-83
2023/10/20 00:48:09;;;;;;;2.30;2.10;;;;;;;19.03;67.08;94360.69;4918819;28;20161;-83
2023/10/20 00:50:35;;;;;;;3.70;2.28;;;;;;;18.98;67.04;94361.78;4891680;28;20368;-83
2023/10/20 00:53:01;;;;;;;2.90;2.53;;;;;;;18.92;67.29;94351.94;4907886;28;20194;-83
2023/10/20 00:55:26;;;;;;;2.47;2.28;;;;;;;18.99;66.93;94347.50;4903797;28;20531;-84
2023/10/20 00:57:53;;;;;;;2.50;2.30;;;;;;;18.93;66.70;94337.66;4924952;28;20649;-83
2023/10/20 01:00:20;;;;;;;3.50;2.67;;;;;;;19.04;66.49;94330.59;4922978;28;20219;-84
2023/10/20 01:02:46;;;;;;;3.00;2.78;;;;;;;19.02;66.94;94328.31;4908571;28;20300;-82
2023/10/20 01:05:14;;;;;;;2.75;2.55;;;;;;;19.02;67.00;94322.25;4907207;28;20684;-83
2023/10/20 01:07:40;;;;;;;3.35;2.65;;;;;;;19.03;67.19;94321.91;4891243;28;20298;-83
2023/10/20 01:10:06;;;;;;;4.10;2.97;;;;;;;18.97;66.82;94323.38;4909533;28;20259;-82
2023/10/20 01:12:32;;;;;;;3.75;2.75;;;;;;;18.94;66.95;94321.47;4925637;28;20194;-81
2023/10/20 01:14:59;;;;;;;3.00;2.80;;;;;;;18.84;66.79;94301.81;4910580;28;20158;-82
2023/10/20 01:17:27;;;;;;;3.50;3.20;;;;;;;18.92;66.94;94300.00;4910790;28;20514;-82
2023/10/20 01:19:52;;;;;;;3.45;3.15;;;;;;;18.95;66.30;94296.59;4916508;28;20203;-83
2023/10/20 01:22:17;;;;;;;3.55;3.25;;;;;;;18.95;66.93;94298.50;4917490;28;20160;-82
2023/10/20 01:24:43;;;;;;;3.17;2.78;;;;;;;18.86;66.78;94289.03;4918031;28;20296;-83
2023/10/20 01:27:08;;;;;;;3.88;3.40;;;;;;;18.92;67.07;94286.81;4908891;28;20662;-82
2023/10/20 01:29:34;;;;;;;2.90;2.70;;;;;;;18.87;66.79;94274.72;4906194;28;20638;-82
2023/10/20 01:31:59;;;;;;;2.90;2.70;;;;;;;18.85;66.90;94271.72;4912710;28;20375;-82
2023/10/20 01:34:24;;;;;;;2.92;2.72;;;;;;;18.87;66.76;94268.72;4915411;28;20262;-83
2023/10/20 01:36:50;;;;;;;3.28;2.72;;;;;;;18.84;67.28;94264.91;4917803;28;20181;-82
2023/10/20 01:39:16;;;;;;;3.72;3.17;;;;;;;18.82;66.90;94259.25;4907917;28;20107;-83
2023/10/20 01:41:41;;;;;;;3.03;2.83;;;;;;;18.80;67.08;94255.44;4896287;28;20248;-83
2023/10/20 01:44:08;;;;;;;3.08;2.85;;;;;;;18.84;66.92;94254.38;4899739;28;20196;-85
2023/10/20 01:46:34;;;;;;;3.42;3.13;;;;;;;18.78;67.13;94244.53;4930799;28;20175;-84
2023/10/20 01:48:59;;;;;;;3.10;2.67;;;;;;;18.66;67.42;94222.63;4915198;28;20760;-83
2023/10/20 01:51:25;;;;;;;3.03;2.83;;;;;;;18.66;66.78;94227.13;4911366;28;20197;-82
2023/10/20 01:53:50;;;;;;;4.22;3.33;;;;;;;18.73;67.20;94229.81;4905372;28;20214;-82
2023/10/20 01:56:16;;;;;;;3.20;2.90;;;;;;;18.69;67.58;94215.84;4930267;28;20349;-84
2023/10/20 01:58:41;;;;;;;4.10;2.75;;;;;;;18.72;67.12;94213.25;4931271;28;20253;-84
2023/10/20 02:01:09;;;;;;;3.08;2.78;;;;;;;18.77;67.12;94198.22;4931140;28;20812;-83
2023/10/20 02:03:36;;;;;;;4.80;2.70;;;;;;;18.75;67.42;94200.44;4915881;28;20336;-83
2023/10/20 02:06:03;;;;;;;4.10;3.17;;;;;;;18.74;66.73;94186.50;4930970;28;20183;-83
2023/10/20 02:08:29;;;;;;;3.83;3.00;;;;;;;18.70;67.07;94191.03;4897002;28;20248;-83
2023/10/20 02:10:54;;;;;;;3.28;2.90;;;;;;;18.81;67.12;94202.34;4915146;28;20295;-83
2023/10/20 02:13:19;;;;;;;3.17;2.90;;;;;;;18.77;67.05;94175.25;4924457;28;20708;-83
2023/10/20 02:15:50;;;;;;;3.15;2.88;;;;;;;18.77;67.11;94150.78;4926374;28;20685;-83
2023/10/20 02:18:17;;;;;;;3.80;3.03;;;;;;;18.68;67.23;94162.41;4926369;28;20558;-83
2023/10/20 02:20:43;;;;;;;2.08;1.98;;;;;;;18.72;66.89;94157.16;4917441;28;20275;-84
2023/10/20 02:23:09;;;;;;;3.47;2.90;;;;;;;18.69;67.11;94148.09;4894547;28;20759;-84
2023/10/20 02:25:34;;;;;;;5.03;2.65;;;;;;;18.67;67.12;94139.06;4910066;28;20205;-84
2023/10/20 02:28:00;;;;;;;3.78;2.60;;;;;;;18.69;67.31;94144.69;4925214;28;20186;-83
2023/10/20 02:30:25;;;;;;;2.63;2.42;;;;;;;18.65;67.13;94131.50;4912080;28;20593;-84
2023/10/20 02:32:51;;;;;;;3.00;2.50;;;;;;;18.65;67.22;94130.78;4929017;28;20263;-83
2023/10/20 02:35:16;;;;;;;3.03;2.50;;;;;;;18.61;67.29;94119.44;4894972;28;20157;-83
2023/10/20 02:37:42;;;;;;;3.15;2.92;;;;;;;18.69;67.05;94115.72;4926600;28;20263;-83
2023/10/20 02:40:07;;;;;;;3.20;2.90;;;;;;;18.61;67.04;94108.91;4892601;28;20645;-83
2023/10/20 02:42:33;;;;;;;3.13;2.83;;;;;;;18.63;67.13;94102.16;4914231;28;20769;-83
2023/10/20 02:45:09;;;;;;;4.18;3.10;;;;;;;18.65;67.30;94084.09;4895850;28;20313;-82
2023/10/20 02:47:34;;;;;;;3.28;2.78;;;;;;;18.46;67.58;94071.22;4900739;28;20255;-84
2023/10/20 02:49:59;;;;;;;3.03;2.83;;;;;;;18.62;67.35;94076.16;4892810;28;20283;-83
2023/10/20 02:52:25;;;;;;;3.35;3.05;;;;;;;18.64;67.01;94072.03;4912352;28;20180;-83
2023/10/20 02:54:54;;;;;;;4.65;2.85;;;;;;;18.61;67.70;94072.78;4912455;28;20285;-84
2023/10/20 02:57:25;;;;;;;3.25;2.95;;;;;;;18.62;67.21;94063.00;4912724;28;20283;-83
2023/10/20 02:59:50;;;;;;;3.67;2.95;;;;;;;18.55;67.12;94058.44;4912599;28;20279;-84
2023/10/20 03:02:17;;;;;;;3.45;3.15;;;;;;;18.55;67.28;94052.44;4911114;28;20309;-84
2023/10/20 03:04:42;;;;;;;3.40;3.13;;;;;;;18.53;67.43;94045.66;4912308;28;20676;-83
2023/10/20 03:07:13;;;;;;;3.38;3.08;;;;;;;18.63;67.22;94038.16;4924552;28;20286;-84
2023/10/20 03:09:38;;;;;;;3.08;2.70;;;;;;;18.48;67.51;94024.19;4895849;28;20185;-83
2023/10/20 03:12:04;;;;;;;3.20;2.50;;;;;;;18.48;67.46;94024.94;4888881;28;20209;-84
2023/10/20 03:14:31;;;;;;;3.28;2.80;;;;;;;18.52;67.23;94009.91;4925876;28;20373;-84
2023/10/20 03:16:56;;;;;;;2.88;2.67;;;;;;;18.44;67.12;93995.19;4912406;28;20531;-84
2023/10/20 03:19:22;;;;;;;2.92;2.60;;;;;;;18.54;67.36;94014.78;4912605;28;20162;-84
2023/10/20 03:21:47;;;;;;;2.67;2.47;;;;;;;18.55;67.34;94007.66;4914478;28;20632;-84
2023/10/20 03:24:13;;;;;;;2.72;2.30;;;;;;;18.56;67.14;93998.59;4924401;28;20234;-85
2023/10/20 03:26:38;;;;;;;3.17;2.88;;;;;;;18.50;67.36;93991.06;4907031;28;20359;-84
2023/10/20 03:29:04;;;;;;;2.85;2.60;;;;;;;18.57;67.25;93992.22;4913316;28;20057;-84
2023/10/20 03:31:30;;;;;;;2.83;2.63;;;;;;;18.62;67.20;93983.94;4917482;28;20279;-85
2023/10/20 03:33:56;;;;;;;2.65;2.45;;;;;;;18.46;67.02;93965.84;4914481;28;20736;-84
2023/10/20 03:36:21;;;;;;;3.38;2.80;;;;;;;18.55;67.34;93965.50;4911981;28;20312;-83
2023/10/20 03:38:49;;;;;;;2.75;2.55;;;;;;;18.52;67.61;93944.03;4892250;28;20106;-83
2023/10/20 03:41:15;;;;;;;2.40;2.20;;;;;;;18.56;67.13;93948.53;4912577;28;20180;-83
2023/10/20 03:43:40;;;;;;;2.67;2.30;;;;;;;18.58;67.40;93946.31;4920434;28;20106;-85
2023/10/20 03:46:06;;;;;;;2.72;1.95;;;;;;;18.75;66.44;93961.38;4930651;28;20273;-84
2023/10/20 03:48:33;;;;;;;2.50;2.30;;;;;;;18.70;66.89;93951.19;4926011;28;20205;-85
2023/10/20 03:50:59;;;;;;;2.50;2.30;;;;;;;18.75;66.48;93950.06;4939240;28;20153;-85
2023/10/20 03:53:27;;;;;;;2.78;2.45;;;;;;;18.53;66.78;93929.72;4903266;28;20274;-84
2023/10/20 03:56:00;;;;;;;3.35;2.60;;;;;;;18.67;67.03;93930.88;4917686;28;20400;-83
2023/10/20 03:58:29;;;;;;;2.80;2.40;;;;;;;18.55;67.49;93904.88;4929800;28;20188;-85
2023/10/20 04:01:01;;;;;;;2.92;2.47;;;;;;;18.58;67.73;93904.16;4896112;28;20225;-84
2023/10/20 04:03:27;;;;;;;2.30;1.98;;;;;;;18.46;67.61;93892.09;4912529;28;20206;-84
2023/10/20 04:05:53;;;;;;;3.33;2.83;;;;;;;18.46;67.09;93876.28;4914838;28;20289;-83
2023/10/20 04:08:19;;;;;;;3.10;2.40;;;;;;;18.45;67.15;93858.97;4910884;28;20676;-82
2023/10/20 04:10:44;;;;;;;2.55;2.35;;;;;;;18.50;67.26;93856.69;4890830;28;20161;-83
2023/10/20 04:13:12;;;;;;;3.08;2.40;;;;;;;18.31;68.08;93855.19;4919509;28;20736;-83
2023/10/20 04:15:37;;;;;;;3.10;2.80;;;;;;;18.28;67.92;93842.03;4939630;28;20212;-83
2023/10/20 04:18:04;;;;;;;3.25;2.53;;;;;;;18.36;68.05;93825.09;4911204;28;20634;-81
2023/10/20 04:20:30;;;;;;;3.70;2.70;;;;;;;18.33;67.97;93804.78;4910866;28;20188;-81
2023/10/20 04:22:55;;;;;;;3.40;3.10;;;;;;;18.30;67.65;93787.09;4910450;28;20192;-82
2023/10/20 04:25:23;;;;;;;3.78;3.25;;;;;;;18.09;68.63;93779.94;4905552;28;20695;-83
2023/10/20 04:27:57;;;;;;;;;;;;;;;;;;;;;
2023/10/20 04:50:48;;;;;;;3.45;3.00;;;;;;;18.32;67.54;93754.00;4931543;28;20235;-84
2023/10/20 05:08:03;;;;;;;3.42;2.70;;;;;;;18.36;66.98;93748.72;4928741;28;20514;-80
2023/10/20 05:10:28;;;;;;;3.13;2.85;;;;;;;18.20;67.49;93728.06;4898457;28;20290;-82
2023/10/20 05:12:54;;;;;;;3.97;2.70;;;;;;;18.00;68.29;93735.56;4892719;28;20331;-84
2023/10/20 05:15:19;;;;;;;3.42;2.40;;;;;;;18.27;68.02;93743.09;4912811;28;20200;-84
2023/10/20 05:17:46;;;;;;;3.17;2.38;;;;;;;18.20;68.18;93724.63;4911950;28;20177;-82
2023/10/20 05:20:13;;;;;;;3.83;2.78;;;;;;;18.17;68.13;93720.16;4910222;28;20241;-83
2023/10/20 05:22:42;;;;;;;2.72;2.28;;;;;;;18.39;67.92;93713.72;4912933;28;20186;-82
2023/10/20 05:25:08;;;;;;;2.90;2.58;;;;;;;18.29;67.61;93703.97;4913039;28;20164;-81
2023/10/20 05:27:34;;;;;;;3.03;2.22;;;;;;;18.13;68.22;93699.09;4897462;28;20592;-84
2023/10/20 05:30:00;;;;;;;2.33;2.13;;;;;;;18.15;68.17;93692.31;4928644;28;20088;-84
2023/10/20 05:32:25;;;;;;;2.65;2.45;;;;;;;18.31;67.62;93691.16;4906900;28;20293;-85
2023/10/20 05:34:54;;;;;;;3.25;2.63;;;;;;;18.28;67.63;93682.16;4909183;28;20193;-84
2023/10/20 05:37:23;;;;;;;4.78;2.35;;;;;;;18.21;67.63;93662.97;4913542;28;20278;-84
2023/10/20 05:39:48;;;;;;;2.60;2.40;;;;;;;18.33;67.08;93681.00;4911571;28;20265;-84
2023/10/20 05:42:14;;;;;;;2.50;2.22;;;;;;;18.32;67.23;93671.59;4911463;28;20677;-85
2023/10/20 05:44:59;;;;;;;3.03;2.38;;;;;;;18.34;67.19;93653.53;4891662;28;20190;-85
2023/10/20 05:47:25;;;;;;;2.92;2.72;;;;;;;18.24;67.42;93636.63;4912755;28;20334;-83
2023/10/20 05:49:50;;;;;;;3.38;2.92;;;;;;;18.18;67.57;93624.22;4912116;28;20254;-84
2023/10/20 05:52:16;;;;;;;3.17;2.67;;;;;;;18.34;67.09;93624.56;4897593;28;20384;-83
2023/10/20 05:54:42;;;;;;;3.38;3.13;;;;;;;18.34;67.24;93614.03;4912206;28;20228;-82
2023/10/20 05:57:07;;;;;;;3.42;3.13;;;;;;;18.24;67.29;93601.66;4902813;28;20670;-84
2023/10/20 05:59:33;;;;;;;3.33;3.00;;;;;;;18.12;67.99;93587.75;4903220;28;20268;-84
2023/10/20 06:01:58;;;;;;;3.30;3.00;;;;;;;17.87;68.78;93579.16;4919532;28;20622;-82
2023/10/20 06:04:23;;;;;;;3.97;2.88;;;;;;;18.00;68.45;93584.78;4909104;28;20519;-83
2023/10/20 06:06:49;;;;;;;3.58;2.97;;;;;;;18.10;68.10;93574.22;4894191;28;20080;-85
2023/10/20 06:09:16;;;;;;;3.38;3.08;;;;;;;18.24;67.30;93593.75;4903851;28;20146;-83
2023/10/20 06:11:42;;;;;;;3.42;2.95;;;;;;;18.40;66.81;93582.78;4894252;28;20634;-84
2023/10/20 06:14:07;;;;;;;4.95;2.75;;;;;;;18.42;67.13;93591.81;4893262;28;20173;-84
2023/10/20 06:16:33;;;;;;;3.67;2.38;;;;;;;18.42;67.40;93588.41;4909233;28;20253;-85
2023/10/20 06:18:58;;;;;;;3.17;2.60;;;;;;;18.34;67.08;93571.88;4906004;28;20274;-83
2023/10/20 06:21:24;;;;;;;4.88;2.65;;;;;;;18.27;67.43;93572.66;4900141;28;20762;-82
2023/10/20 06:23:50;;;;;;;3.95;3.00;;;;;;;18.15;67.61;93571.19;4930133;28;20705;-84
2023/10/20 06:26:15;;;;;;;3.72;2.83;;;;;;;18.15;67.33;93563.31;4917059;28;20215;-84
2023/10/20 06:28:41;;;;;;;3.42;2.80;;;;;;;18.27;67.17;93559.50;4892146;28;20187;-83
2023/10/20 06:33:59;;;;;;;4.30;2.50;;;;;;;18.24;67.83;93562.88;4922255;28;20326;-85
2023/10/20 06:36:26;;;;;;;4.00;2.70;;;;;;;18.25;67.42;93550.47;4895496;28;20123;-80
2023/10/20 06:38:51;;;;;;;3.10;2.80;;;;;;;18.20;67.67;93542.97;4921541;28;20199;-80
2023/10/20 06:41:17;;;;;;;2.67;2.47;;;;;;;18.11;67.53;93546.78;4890813;28;20210;-85
2023/10/20 06:43:46;;;;;;;2.95;2.65;;;;;;;18.30;67.50;93542.94;4895566;28;20279;-83
2023/10/20 06:46:12;;;;;;;3.45;3.15;;;;;;;18.18;68.10;93545.22;4910600;28;20212;-85
2023/10/20 06:48:37;;;;;;;2.75;2.55;;;;;;;18.29;67.09;93535.41;4897009;28;20654;-84
2023/10/20 06:51:03;;;;;;;2.47;2.28;;;;;;;18.21;67.06;93523.41;4925244;28;20169;-87
2023/10/20 06:53:28;;;;;;;4.20;2.70;;;;;;;18.10;68.29;93531.34;4884062;28;20180;-83
2023/10/20 06:55:54;;;;;;;3.10;2.20;;;;;;;18.25;67.55;93509.09;4911486;28;20204;-84
2023/10/20 06:58:19;;;;;;;3.42;2.63;;;;;;;18.22;67.17;93503.84;4887947;28;20262;-85
2023/10/20 07:00:45;;;;;;;2.67;2.45;;;;;;;18.23;67.68;93516.66;4887323;28;20236;-81
2023/10/20 07:03:12;;;;;;;3.05;2.25;;;;;;;18.20;67.49;93509.50;4895167;28;20247;-84
2023/10/20 07:05:38;;;;;;;2.67;2.45;;;;;;;18.26;67.50;93517.75;4895080;28;20236;-85
2023/10/20 07:08:05;;;;;;;2.45;2.25;;;;;;;18.44;67.37;93526.31;4902499;28;20212;-84
2023/10/20 07:10:34;;;;;;;1.95;1.77;;;;;;;18.46;66.96;93518.03;4904880;28;20207;-84
2023/10/20 07:13:00;;;;;;;2.00;1.90;;;;;;;18.43;66.98;93521.44;4908898;28;20715;-85
2023/10/20 07:15:26;;;;;;;2.13;1.92;;;;;;;18.44;66.70;93515.00;4903831;28;21227;-84
2023/10/20 07:17:51;;;;;;;2.53;2.10;;;;;;;18.44;66.58;93522.91;4922382;28;20644;-84
2023/10/20 07:20:16;;;;;;;2.28;1.83;;;;;;;18.44;67.11;93515.00;4896854;28;20617;-83
2023/10/20 07:22:42;;;;;;;3.63;2.30;;;;;;;18.36;67.48;93509.03;4915327;28;20102;-85
2023/10/20 07:25:08;;;;;;;2.10;1.90;;;;;;;18.39;67.12;93524.09;4915674;28;20166;-86
2023/10/20 07:27:33;;;;;;;2.00;1.90;;;;;;;18.44;67.41;93505.25;4889080;28;20262;-86
2023/10/20 07:29:59;;;;;;;1.70;1.60;;;;;;;18.44;66.98;93494.72;4888535;28;20306;-84
2023/10/20 07:32:25;;;;;;;2.28;1.92;;;;;;;18.58;67.20;93514.94;4896995;28;20645;-85
2023/10/20 07:34:50;;;;;;;1.55;1.45;;;;;;;18.48;66.99;93503.34;4914287;28;20290;-83
2023/10/20 07:37:16;;;;;;;2.20;1.90;;;;;;;18.52;66.79;93496.19;4898083;28;20185;-83
2023/10/20 07:39:43;;;;;;;1.85;1.70;;;;;;;18.57;66.99;93513.44;4896638;28;20204;-85
2023/10/20 07:42:09;;;;;;;1.83;1.65;;;;;;;18.44;67.06;93510.50;4895926;28;20620;-84
2023/10/20 07:44:34;;;;;;;1.67;1.40;;;;;;;18.53;67.04;93524.00;4927793;28;20225;-86
2023/10/20 07:47:00;;;;;;;2.05;1.85;;;;;;;18.64;66.76;93539.75;4898379;28;20577;-85
2023/10/20 07:49:25;;;;;;;2.15;1.60;;;;;;;18.65;66.67;93535.25;4892576;28;20128;-85
2023/10/20 07:51:52;;;;;;;1.52;1.27;;;;;;;18.67;67.12;93532.97;4913700;28;20222;-83
2023/10/20 07:54:17;;;;;;;1.33;1.23;;;;;;;18.53;66.94;93542.44;4928209;28;20688;-85
2023/10/20 07:56:42;;;;;;;1.55;1.45;;;;;;;18.71;66.53;93549.50;4913840;28;20258;-85
2023/10/20 07:59:08;;;;;;;1.60;1.30;;;;;;;18.77;66.45;93547.97;4895574;28;20219;-85
2023/10/20 08:01:34;;;;;;;1.33;1.23;;;;;;;18.72;66.46;93553.66;4895804;28;20347;-83
2023/10/20 08:03:59;;;;;;;1.60;1.20;;;;;;;18.91;66.31;93576.16;4922154;28;20169;-83
2023/10/20 08:06:25;;;;;;;1.40;1.30;;;;;;;19.00;66.19;93586.28;4905912;28;20322;-83
2023/10/20 08:08:50;;;;;;;1.48;1.20;;;;;;;18.94;66.03;93582.56;4892097;28;20689;-83
2023/10/20 08:11:16;;;;;;;1.63;1.10;;;;;;;18.98;65.84;93583.28;4908579;28;20170;-81
2023/10/20 08:13:41;;;;;;;1.30;1.20;;;;;;;18.92;66.60;93596.13;4894686;28;20732;-85
2023/10/20 08:16:07;;;;;;;1.38;1.20;;;;;;;18.96;66.42;93598.72;4911592;28;20255;-85
2023/10/20 08:18:33;;;;;;;1.30;1.20;;;;;;;18.93;66.51;93600.25;4908093;28;20170;-84
2023/10/20 08:21:07;;;;;;;1.48;1.02;;;;;;;19.25;65.89;93610.59;4902573;28;20629;-81
2023/10/20 08:23:33;;;;;;;1.30;1.20;;;;;;;19.01;66.23;93604.34;4891538;28;20189;-83
2023/10/20 08:25:59;;;;;;;1.80;1.30;;;;;;;19.19;65.75;93630.63;4889909;28;20203;-82
2023/10/20 08:28:25;;;;;;;2.08;1.20;;;;;;;19.14;65.83;93638.16;4914440;28;20273;-83
2023/10/20 08:30:51;;;;;;;2.65;1.30;;;;;;;19.19;65.79;93649.06;4908158;28;20626;-83
2023/10/20 08:33:16;;;;;;;1.42;1.33;;;;;;;19.36;65.74;93660.63;4896609;28;20197;-81
2023/10/20 08:35:42;;;;;;;1.73;1.30;;;;;;;19.30;65.68;93654.28;4877025;28;20196;-83
2023/10/20 08:38:07;;;;;;;3.20;2.25;;;;;;;19.18;65.41;93660.00;4907415;28;20279;-82
2023/10/20 08:40:35;;;;;;;2.33;2.10;;;;;;;19.34;65.12;93693.81;4895983;28;20180;-84
2023/10/20 08:43:02;;;;;;;3.10;2.22;;;;;;;19.42;65.24;93695.28;4901266;28;20225;-83
2023/10/20 08:45:31;;;;;;;2.50;2.28;;;;;;;19.36;65.25;93681.00;4924520;28;20254;-83
2023/10/20 08:47:57;;;;;;;2.55;2.33;;;;;;;19.30;65.08;93682.53;4890726;28;20256;-82
2023/10/20 08:50:23;;;;;;;2.25;1.98;;;;;;;19.36;65.67;93686.25;4906992;28;20255;-83
2023/10/20 08:52:49;;;;;;;2.42;2.22;;;;;;;19.49;65.47;93692.59;4899914;28;20279;-83
2023/10/20 08:55:15;;;;;;;3.03;2.40;;;;;;;19.24;65.59;93675.03;4927566;28;20291;-83
2023/10/20 08:57:40;;;;;;;2.60;2.40;;;;;;;19.33;64.83;93687.03;4907119;28;20722;-83
2023/10/20 09:00:07;;;;;;;2.65;2.38;;;;;;;19.36;64.88;93691.53;4924651;28;20262;-84
2023/10/20 09:02:37;;;;;;;5.15;2.50;;;;;;;19.50;64.68;93702.03;4921560;28;20219;-83
2023/10/20 09:05:03;;;;;;;3.40;3.10;;;;;;;19.38;64.70;93705.84;4906335;28;20204;-84
2023/10/20 09:07:29;;;;;;;3.10;2.67;;;;;;;19.40;64.65;93702.84;4926510;28;20207;-85
2023/10/20 09:09:55;;;;;;;2.83;2.63;;;;;;;19.52;65.33;93705.03;4908454;28;20803;-83
2023/10/20 09:12:20;;;;;;;3.50;3.17;;;;;;;19.50;65.22;93714.44;4908878;28;20211;-84
2023/10/20 09:14:46;;;;;;;3.22;2.92;;;;;;;19.54;65.76;93713.28;4899896;28;20196;-84
2023/10/20 09:17:24;;;;;;;3.45;3.15;;;;;;;19.72;65.33;93717.69;4892357;28;20238;-83
2023/10/20 09:19:49;;;;;;;3.30;3.00;;;;;;;19.75;64.69;93724.88;4910636;28;20224;-83
2023/10/20 09:22:26;;;;;;;3.08;2.78;;;;;;;19.73;64.10;93717.31;4902273;28;20639;-84
2023/10/20 09:24:54;;;;;;;3.55;3.25;;;;;;;19.71;64.79;93726.78;4879309;28;20212;-83
2023/10/20 09:27:19;;;;;;;3.47;3.17;;;;;;;19.81;64.64;93713.53;4892208;28;20379;-84
2023/10/20 09:29:45;;;;;;;3.63;2.92;;;;;;;19.82;64.43;93712.38;4888161;28;20657;-84
2023/10/20 09:32:11;;;;;;;3.28;2.95;;;;;;;19.81;64.47;93700.31;4903824;28;20625;-83
2023/10/20 09:34:37;;;;;;;4.18;2.85;;;;;;;19.74;64.54;93705.66;4911450;28;20326;-84
2023/10/20 09:37:03;;;;;;;3.42;3.00;;;;;;;19.74;63.70;93694.31;4903593;28;20200;-85
2023/10/20 09:39:37;;;;;;;3.28;2.85;;;;;;;19.80;64.18;93703.34;4886772;28;20212;-84
2023/10/20 09:42:05;;;;;;;3.75;3.40;;;;;;;19.72;64.35;93691.31;4915253;28;20784;-84
2023/10/20 09:44:41;;;;;;;3.60;2.70;;;;;;;19.90;63.71;93699.88;4894466;28;20272;-84
2023/10/20 09:47:16;;;;;;;3.47;3.17;;;;;;;20.02;64.44;93698.66;4922012;28;20098;-84
2023/10/20 09:49:41;;;;;;;3.08;2.88;;;;;;;19.95;64.40;93704.00;4914541;28;20400;-84
2023/10/20 09:52:08;;;;;;;3.33;3.03;;;;;;;19.91;64.66;93700.63;4892170;28;20139;-84
2023/10/20 09:54:33;;;;;;;3.58;2.90;;;;;;;20.01;64.32;93708.47;4914440;28;20207;-85
2023/10/20 09:56:59;;;;;;;2.97;2.50;;;;;;;20.09;63.88;93716.34;4896901;28;20200;-84
2023/10/20 09:59:30;;;;;;;3.00;2.70;;;;;;;20.21;63.40;93721.88;4927791;28;20177;-84
2023/10/20 10:02:29;;;;;;;3.50;2.60;;;;;;;20.22;63.45;93727.94;4914372;28;20399;-84
2023/10/20 10:04:54;;;;;;;3.38;2.55;;;;;;;20.01;64.39;93734.13;4922824;28;20208;-84
2023/10/20 10:07:28;;;;;;;3.30;2.53;;;;;;;20.26;64.28;93743.75;4895095;28;20140;-83
2023/10/20 10:09:55;;;;;;;2.93;2.73;;;;;;;20.11;64.19;93741.19;4896069;28;20197;-83
2023/10/20 10:12:21;;;;;;;2.72;2.42;;;;;;;19.98;64.13;93738.28;4897445;28;21415;-83
2023/10/20 10:15:12;;;;;;;3.30;3.00;;;;;;;20.16;64.42;93735.50;4912887;28;20221;-84
2023/10/20 10:17:48;;;;;;;3.50;2.80;;;;;;;20.21;62.94;93743.00;4905718;28;20190;-83
2023/10/20 10:20:24;;;;;;;3.58;2.70;;;;;;;20.05;62.90;93748.06;4911803;28;20256;-82
2023/10/20 10:23:25;;;;;;;3.08;2.78;;;;;;;20.14;64.52;93758.19;4912449;28;20168;-83
2023/10/20 10:25:53;;;;;;;3.28;2.88;;;;;;;19.93;63.93;93738.72;4904944;28;20188;-82
2023/10/20 10:28:20;;;;;;;3.40;2.60;;;;;;;19.94;64.48;93750.00;4928560;28;20327;-81
2023/10/20 10:30:49;;;;;;;3.50;3.20;;;;;;;20.07;65.28;93745.78;4910037;28;20292;-83
2023/10/20 10:33:20;;;;;;;3.15;2.92;;;;;;;20.25;65.87;93742.97;4928677;28;20200;-81
2023/10/20 10:35:46;;;;;;;3.40;3.10;;;;;;;20.15;65.42;93741.94;4893352;28;20208;-82
2023/10/20 10:38:21;;;;;;;3.50;2.60;;;;;;;20.52;64.82;93732.53;4895868;28;20646;-81
2023/10/20 10:40:51;;;;;;;2.97;2.67;;;;;;;20.77;65.01;93737.59;4920475;28;20626;-83
2023/10/20 10:43:18;;;;;;;3.13;2.25;;;;;;;20.69;63.76;93727.50;4929671;28;20280;-82
2023/10/20 10:45:43;;;;;;;3.00;2.17;;;;;;;20.54;63.74;93729.50;4926589;28;20192;-82
2023/10/20 10:48:10;;;;;;;2.08;1.98;;;;;;;20.65;63.39;93732.84;4912368;28;20583;-82
2023/10/20 10:50:40;;;;;;;2.00;1.90;;;;;;;20.71;64.07;93731.25;4893476;28;20173;-82
2023/10/20 10:53:07;;;;;;;2.38;1.73;;;;;;;20.58;63.46;93738.16;4892762;28;20171;-83
2023/10/20 10:55:35;;;;;;;2.10;1.80;;;;;;;20.39;64.03;93732.28;4934712;28;20250;-82
2023/10/20 10:58:07;;;;;;;1.50;1.40;;;;;;;20.36;64.89;93721.75;4913386;28;20264;-82
2023/10/20 11:00:34;;;;;;;2.13;1.60;;;;;;;20.22;65.11;93712.06;4921785;28;20285;-82
2023/10/20 11:03:00;;;;;;;1.60;1.50;;;;;;;20.16;63.80;93724.19;4893417;28;20527;-82
2023/10/20 11:05:26;;;;;;;1.50;1.40;;;;;;;20.21;64.16;93715.84;4913659;28;20717;-82
2023/10/20 11:08:02;;;;;;;1.65;1.55;;;;;;;20.40;64.81;93725.09;4909891;28;20214;-81
2023/10/20 11:10:29;;;;;;;1.52;1.42;;;;;;;20.32;64.98;93726.31;4914855;28;20195;-81
2023/10/20 11:12:58;;;;;;;2.65;1.25;;;;;;;20.02;65.80;93725.06;4912887;28;20692;-83
2023/10/20 11:15:32;;;;;;;1.60;1.50;;;;;;;19.95;66.04;93740.97;4912025;28;20180;-80
2023/10/20 11:17:59;;;;;;;1.20;1.10;;;;;;;19.88;66.31;93741.75;4891223;28;20713;-81
2023/10/20 11:20:25;;;;;;;1.95;1.75;;;;;;;19.96;66.46;93759.06;4901017;28;20548;-81
2023/10/20 11:22:54;;;;;;;1.50;1.40;;;;;;;20.08;65.64;93751.78;4922749;28;20204;-81
2023/10/20 11:25:20;;;;;;;1.70;1.60;;;;;;;20.09;65.76;93754.06;4897293;28;20289;-81
2023/10/20 11:27:53;;;;;;;1.50;1.40;;;;;;;19.94;67.31;93753.41;4895557;28;20282;-82
2023/10/20 11:30:34;;;;;;;1.50;1.40;;;;;;;20.36;65.62;93748.19;4928614;28;20200;-81
2023/10/20 11:33:00;;;;;;;1.45;1.35;;;;;;;20.22;65.38;93746.41;4929750;28;20188;-81
2023/10/20 11:35:26;;;;;;;1.60;1.00;;;;;;;19.97;65.57;93736.78;4907340;28;20647;-81
2023/10/20 11:37:53;;;;;;;1.55;1.45;;;;;;;20.09;66.35;93743.50;4907139;28;20599;-81
2023/10/20 11:40:19;;;;;;;1.20;1.10;;;;;;;20.26;65.82;93762.97;4928094;28;20157;-81
2023/10/20 11:42:44;;;;;;;1.02;1.02;;;;;;;20.29;65.58;93751.63;4910521;28;20775;-81
2023/10/20 11:45:12;;;;;;;1.65;1.10;;;;;;;20.29;65.14;93762.19;4909182;28;20258;-82
2023/10/20 11:47:39;;;;;;;0.88;0.88;;;;;;;19.95;65.43;93762.09;4892763;28;20584;-82
2023/10/20 11:50:08;;;;;;;1.05;1.00;;;;;;;20.14;65.06;93766.09;4908061;28;20114;-81
2023/10/20 11:52:37;;;;;;;0.80;0.80;;;;;;;20.15;65.92;93765.72;4912224;28;20225;-81
2023/10/20 11:55:03;;;;;;;0.77;0.77;;;;;;;20.36;65.47;93777.25;4890898;28;20307;-82
2023/10/20 11:57:29;;;;;;;0.95;0.80;;;;;;;20.20;65.10;93778.50;4926549;28;20206;-81
2023/10/20 11:59:54;;;;;;;1.02;0.90;;;;;;;20.15;65.32;93786.06;4909851;28;20582;-82
2023/10/20 12:02:20;;;;;;;0.82;0.80;;;;;;;20.14;65.21;93792.50;4917789;28;20743;-83
2023/10/20 12:04:45;;;;;;;1.17;0.88;;;;;;;20.23;65.44;93800.00;4925917;28;20161;-82
2023/10/20 12:07:10;;;;;;;2.05;1.02;;;;;;;20.10;65.35;93800.47;4924406;28;20247;-83
2023/10/20 12:09:36;;;;;;;0.73;0.73;;;;;;;19.96;65.04;93797.91;4908417;28;20589;-82
2023/10/20 12:12:01;;;;;;;1.17;0.85;;;;;;;19.95;65.97;93810.34;4909245;28;20651;-83